Arlington, Tennessee
Current Conditions -  °F | °C
As of 6:50 AM on Friday 19 Dec 2014 (Local Time) from KNQA Reporting Station
Overcast Overcast  
Wind Chill:   Ceiling: 2600
Heat Index:   Visibility: 10mi
Dew Point:   Wind: 3mph
Humidity: 87%   Direction: 30°NNE
Pressure: 30.24"   Gusts: NA
Location:  35.3°N, 89.66°W
Report Text: KNQA 191250Z 03003KT 10SM BKN026 OVC035 04/02 A3024
Loading
Personal Weather Stations






























Interactive Weather Map New forecast layout! Learn more

10-Day Weather Forecast

Advertisements
Track Severe Weather on mobile